sensor_id;sensor_type;location;lat;lon;timestamp;temperature;humidity
10249;DHT22;5169;50.560;9.714;2024-02-14T00:01:11;6.20;99.90
10249;DHT22;5169;50.560;9.714;2024-02-14T00:03:37;6.20;99.90
10249;DHT22;5169;50.560;9.714;2024-02-14T00:06:04;6.20;99.90
10249;DHT22;5169;50.560;9.714;2024-02-14T00:08:31;6.30;99.90
10249;DHT22;5169;50.560;9.714;2024-02-14T00:10:57;6.30;99.90
10249;DHT22;5169;50.560;9.714;2024-02-14T00:13:25;6.30;99.90
10249;DHT22;5169;50.560;9.714;2024-02-14T00:15:51;6.30;99.90
10249;DHT22;5169;50.560;9.714;2024-02-14T00:18:17;6.20;99.90
10249;DHT22;5169;50.560;9.714;2024-02-14T00:20:44;6.20;99.90
10249;DHT22;5169;50.560;9.714;2024-02-14T00:23:10;6.30;99.90
10249;DHT22;5169;50.560;9.714;2024-02-14T00:25:40;6.30;99.90
10249;DHT22;5169;50.560;9.714;2024-02-14T00:28:06;6.30;99.90
10249;DHT22;5169;50.560;9.714;2024-02-14T00:30:34;6.40;99.90
10249;DHT22;5169;50.560;9.714;2024-02-14T00:32:59;6.40;99.90
10249;DHT22;5169;50.560;9.714;2024-02-14T00:35:25;6.40;99.90
10249;DHT22;5169;50.560;9.714;2024-02-14T00:37:55;6.50;99.90
10249;DHT22;5169;50.560;9.714;2024-02-14T00:40:21;6.50;99.90
10249;DHT22;5169;50.560;9.714;2024-02-14T00:42:46;6.50;99.90
10249;DHT22;5169;50.560;9.714;2024-02-14T00:45:14;6.50;99.90
10249;DHT22;5169;50.560;9.714;2024-02-14T00:47:42;6.50;99.90
10249;DHT22;5169;50.560;9.714;2024-02-14T00:50:10;6.50;99.90
10249;DHT22;5169;50.560;9.714;2024-02-14T00:52:38;6.50;99.90
10249;DHT22;5169;50.560;9.714;2024-02-14T00:55:05;6.50;99.90
10249;DHT22;5169;50.560;9.714;2024-02-14T00:57:31;6.60;99.90
10249;DHT22;5169;50.560;9.714;2024-02-14T00:59:57;6.60;99.90
10249;DHT22;5169;50.560;9.714;2024-02-14T01:02:22;6.60;99.90
10249;DHT22;5169;50.560;9.714;2024-02-14T01:04:48;6.70;99.90
10249;DHT22;5169;50.560;9.714;2024-02-14T01:07:13;6.70;99.90
10249;DHT22;5169;50.560;9.714;2024-02-14T01:09:41;6.70;99.90
10249;DHT22;5169;50.560;9.714;2024-02-14T01:12:07;6.60;99.90
10249;DHT22;5169;50.560;9.714;2024-02-14T01:14:33;6.70;99.90
10249;DHT22;5169;50.560;9.714;2024-02-14T01:16:58;6.70;99.90
10249;DHT22;5169;50.560;9.714;2024-02-14T01:19:24;6.70;99.90
10249;DHT22;5169;50.560;9.714;2024-02-14T01:21:54;6.70;99.90
10249;DHT22;5169;50.560;9.714;2024-02-14T01:24:23;6.70;99.90
10249;DHT22;5169;50.560;9.714;2024-02-14T01:26:52;6.70;99.90
10249;DHT22;5169;50.560;9.714;2024-02-14T01:29:19;6.70;99.90
10249;DHT22;5169;50.560;9.714;2024-02-14T01:31:48;6.70;99.90
10249;DHT22;5169;50.560;9.714;2024-02-14T01:34:15;6.70;99.90
10249;DHT22;5169;50.560;9.714;2024-02-14T01:36:41;6.70;99.90
10249;DHT22;5169;50.560;9.714;2024-02-14T01:39:07;6.70;99.90
10249;DHT22;5169;50.560;9.714;2024-02-14T01:41:36;6.70;99.90
10249;DHT22;5169;50.560;9.714;2024-02-14T01:44:04;6.70;99.90
10249;DHT22;5169;50.560;9.714;2024-02-14T01:46:30;6.70;99.90
10249;DHT22;5169;50.560;9.714;2024-02-14T01:49:00;6.70;99.90
10249;DHT22;5169;50.560;9.714;2024-02-14T01:51:26;6.70;99.90
10249;DHT22;5169;50.560;9.714;2024-02-14T01:53:53;6.70;99.90
10249;DHT22;5169;50.560;9.714;2024-02-14T01:56:20;6.80;99.90
10249;DHT22;5169;50.560;9.714;2024-02-14T01:58:48;6.80;99.90
10249;DHT22;5169;50.560;9.714;2024-02-14T02:01:15;6.80;99.90
10249;DHT22;5169;50.560;9.714;2024-02-14T02:03:43;6.80;99.90
10249;DHT22;5169;50.560;9.714;2024-02-14T02:06:09;6.80;99.90
10249;DHT22;5169;50.560;9.714;2024-02-14T02:08:35;6.80;99.90
10249;DHT22;5169;50.560;9.714;2024-02-14T02:11:02;6.80;99.90
10249;DHT22;5169;50.560;9.714;2024-02-14T02:13:28;6.90;99.90
10249;DHT22;5169;50.560;9.714;2024-02-14T02:15:54;6.90;99.90
10249;DHT22;5169;50.560;9.714;2024-02-14T02:18:20;6.90;99.90
10249;DHT22;5169;50.560;9.714;2024-02-14T02:20:46;6.90;99.90
10249;DHT22;5169;50.560;9.714;2024-02-14T02:23:14;6.80;99.90
10249;DHT22;5169;50.560;9.714;2024-02-14T02:25:43;6.90;99.90
10249;DHT22;5169;50.560;9.714;2024-02-14T02:28:09;6.90;99.90
10249;DHT22;5169;50.560;9.714;2024-02-14T02:30:38;6.90;99.90
10249;DHT22;5169;50.560;9.714;2024-02-14T02:33:06;6.90;99.90
10249;DHT22;5169;50.560;9.714;2024-02-14T02:35:33;6.80;99.90
10249;DHT22;5169;50.560;9.714;2024-02-14T02:37:59;6.80;99.90
10249;DHT22;5169;50.560;9.714;2024-02-14T02:40:25;6.80;99.90
10249;DHT22;5169;50.560;9.714;2024-02-14T02:42:54;6.80;99.90
10249;DHT22;5169;50.560;9.714;2024-02-14T02:45:22;6.80;99.90
10249;DHT22;5169;50.560;9.714;2024-02-14T02:47:48;6.80;99.90
10249;DHT22;5169;50.560;9.714;2024-02-14T02:50:15;6.70;99.90
10249;DHT22;5169;50.560;9.714;2024-02-14T02:52:41;6.70;99.90
10249;DHT22;5169;50.560;9.714;2024-02-14T02:55:07;6.70;99.90
10249;DHT22;5169;50.560;9.714;2024-02-14T02:57:33;6.70;99.90
10249;DHT22;5169;50.560;9.714;2024-02-14T02:59:59;6.70;99.90
10249;DHT22;5169;50.560;9.714;2024-02-14T03:02:25;6.70;99.90
10249;DHT22;5169;50.560;9.714;2024-02-14T03:04:54;6.70;99.90
10249;DHT22;5169;50.560;9.714;2024-02-14T03:07:19;6.70;99.90
10249;DHT22;5169;50.560;9.714;2024-02-14T03:09:46;6.60;99.90
10249;DHT22;5169;50.560;9.714;2024-02-14T03:12:13;6.60;99.90
10249;DHT22;5169;50.560;9.714;2024-02-14T03:14:44;6.60;99.90
10249;DHT22;5169;50.560;9.714;2024-02-14T03:17:12;6.60;99.90
10249;DHT22;5169;50.560;9.714;2024-02-14T03:19:40;6.70;99.90
10249;DHT22;5169;50.560;9.714;2024-02-14T03:22:05;6.70;99.90
10249;DHT22;5169;50.560;9.714;2024-02-14T03:24:34;6.70;99.90
10249;DHT22;5169;50.560;9.714;2024-02-14T03:27:05;6.70;99.90
10249;DHT22;5169;50.560;9.714;2024-02-14T03:29:31;6.70;99.90
10249;DHT22;5169;50.560;9.714;2024-02-14T03:31:57;6.70;99.90
10249;DHT22;5169;50.560;9.714;2024-02-14T03:34:24;6.80;99.90
10249;DHT22;5169;50.560;9.714;2024-02-14T03:36:50;6.70;99.90
10249;DHT22;5169;50.560;9.714;2024-02-14T03:39:16;6.70;99.90
10249;DHT22;5169;50.560;9.714;2024-02-14T03:41:42;6.80;99.90
10249;DHT22;5169;50.560;9.714;2024-02-14T03:44:08;6.80;99.90
10249;DHT22;5169;50.560;9.714;2024-02-14T03:46:34;6.80;99.90
10249;DHT22;5169;50.560;9.714;2024-02-14T03:49:01;6.80;99.90
10249;DHT22;5169;50.560;9.714;2024-02-14T03:51:26;6.90;99.90
10249;DHT22;5169;50.560;9.714;2024-02-14T03:53:52;6.90;99.90
10249;DHT22;5169;50.560;9.714;2024-02-14T03:56:18;6.90;99.90
10249;DHT22;5169;50.560;9.714;2024-02-14T03:58:44;6.90;99.90
10249;DHT22;5169;50.560;9.714;2024-02-14T04:01:12;6.90;99.90
10249;DHT22;5169;50.560;9.714;2024-02-14T04:03:38;6.90;99.90
10249;DHT22;5169;50.560;9.714;2024-02-14T04:06:04;6.90;99.90
10249;DHT22;5169;50.560;9.714;2024-02-14T04:08:29;6.80;99.90
10249;DHT22;5169;50.560;9.714;2024-02-14T04:10:58;6.80;99.90
10249;DHT22;5169;50.560;9.714;2024-02-14T04:13:24;6.90;99.90
10249;DHT22;5169;50.560;9.714;2024-02-14T04:15:50;6.90;99.90
10249;DHT22;5169;50.560;9.714;2024-02-14T04:18:18;7.00;99.90
10249;DHT22;5169;50.560;9.714;2024-02-14T04:20:46;7.00;99.90
10249;DHT22;5169;50.560;9.714;2024-02-14T04:23:15;7.00;99.90
10249;DHT22;5169;50.560;9.714;2024-02-14T04:25:41;6.90;99.90
10249;DHT22;5169;50.560;9.714;2024-02-14T04:28:09;7.00;99.90
10249;DHT22;5169;50.560;9.714;2024-02-14T04:30:37;7.00;99.90
10249;DHT22;5169;50.560;9.714;2024-02-14T04:33:04;7.10;99.90
10249;DHT22;5169;50.560;9.714;2024-02-14T04:35:35;7.10;99.90
10249;DHT22;5169;50.560;9.714;2024-02-14T04:38:01;7.10;99.90
10249;DHT22;5169;50.560;9.714;2024-02-14T04:40:28;7.00;99.90
10249;DHT22;5169;50.560;9.714;2024-02-14T04:42:53;7.00;99.90
10249;DHT22;5169;50.560;9.714;2024-02-14T04:45:19;7.10;99.90
10249;DHT22;5169;50.560;9.714;2024-02-14T04:47:47;7.00;99.90
10249;DHT22;5169;50.560;9.714;2024-02-14T04:50:12;7.10;99.90
10249;DHT22;5169;50.560;9.714;2024-02-14T04:52:39;7.10;99.90
10249;DHT22;5169;50.560;9.714;2024-02-14T04:55:05;7.10;99.90
10249;DHT22;5169;50.560;9.714;2024-02-14T04:57:31;7.10;99.90
10249;DHT22;5169;50.560;9.714;2024-02-14T05:00:00;7.00;99.90
10249;DHT22;5169;50.560;9.714;2024-02-14T05:02:26;6.90;99.90
10249;DHT22;5169;50.560;9.714;2024-02-14T05:04:53;7.00;99.90
10249;DHT22;5169;50.560;9.714;2024-02-14T05:07:19;7.10;99.90
10249;DHT22;5169;50.560;9.714;2024-02-14T05:09:47;7.10;99.90
10249;DHT22;5169;50.560;9.714;2024-02-14T05:12:19;7.00;99.90
10249;DHT22;5169;50.560;9.714;2024-02-14T05:14:45;7.00;99.90
10249;DHT22;5169;50.560;9.714;2024-02-14T05:17:11;7.00;99.90
10249;DHT22;5169;50.560;9.714;2024-02-14T05:19:37;6.90;99.90
10249;DHT22;5169;50.560;9.714;2024-02-14T05:22:02;7.00;99.90
10249;DHT22;5169;50.560;9.714;2024-02-14T05:24:28;7.00;99.90
10249;DHT22;5169;50.560;9.714;2024-02-14T05:26:55;7.00;99.90
10249;DHT22;5169;50.560;9.714;2024-02-14T05:29:22;7.00;99.90
10249;DHT22;5169;50.560;9.714;2024-02-14T05:31:48;7.00;99.90
10249;DHT22;5169;50.560;9.714;2024-02-14T05:34:14;7.00;99.90
10249;DHT22;5169;50.560;9.714;2024-02-14T05:36:42;7.00;99.90
10249;DHT22;5169;50.560;9.714;2024-02-14T05:39:08;6.90;99.90
10249;DHT22;5169;50.560;9.714;2024-02-14T05:41:34;6.90;99.90
10249;DHT22;5169;50.560;9.714;2024-02-14T05:44:00;6.90;99.90
10249;DHT22;5169;50.560;9.714;2024-02-14T05:46:28;6.90;99.90
10249;DHT22;5169;50.560;9.714;2024-02-14T05:48:54;6.90;99.90
10249;DHT22;5169;50.560;9.714;2024-02-14T05:51:20;6.80;99.90
10249;DHT22;5169;50.560;9.714;2024-02-14T05:53:46;6.80;99.90
10249;DHT22;5169;50.560;9.714;2024-02-14T05:56:12;6.80;99.90
10249;DHT22;5169;50.560;9.714;2024-02-14T05:58:37;6.80;99.90
10249;DHT22;5169;50.560;9.714;2024-02-14T06:01:03;6.90;99.90
10249;DHT22;5169;50.560;9.714;2024-02-14T06:03:29;6.80;99.90
10249;DHT22;5169;50.560;9.714;2024-02-14T06:05:59;6.80;99.90
10249;DHT22;5169;50.560;9.714;2024-02-14T06:08:25;6.80;99.90
10249;DHT22;5169;50.560;9.714;2024-02-14T06:10:52;6.80;99.90
10249;DHT22;5169;50.560;9.714;2024-02-14T06:13:18;6.80;99.90
10249;DHT22;5169;50.560;9.714;2024-02-14T06:15:44;6.80;99.90
10249;DHT22;5169;50.560;9.714;2024-02-14T06:18:13;6.80;99.90
10249;DHT22;5169;50.560;9.714;2024-02-14T06:20:41;6.80;99.90
10249;DHT22;5169;50.560;9.714;2024-02-14T06:23:07;6.80;99.90
10249;DHT22;5169;50.560;9.714;2024-02-14T06:25:35;6.80;99.90
10249;DHT22;5169;50.560;9.714;2024-02-14T06:28:00;6.80;99.90
10249;DHT22;5169;50.560;9.714;2024-02-14T06:30:27;6.80;99.90
10249;DHT22;5169;50.560;9.714;2024-02-14T06:32:52;6.70;99.90
10249;DHT22;5169;50.560;9.714;2024-02-14T06:35:18;6.70;99.90
10249;DHT22;5169;50.560;9.714;2024-02-14T06:37:46;6.70;99.90
10249;DHT22;5169;50.560;9.714;2024-02-14T06:40:17;6.80;99.90
10249;DHT22;5169;50.560;9.714;2024-02-14T06:42:43;6.70;99.90
10249;DHT22;5169;50.560;9.714;2024-02-14T06:45:09;6.70;99.90
10249;DHT22;5169;50.560;9.714;2024-02-14T06:47:34;6.70;99.90
10249;DHT22;5169;50.560;9.714;2024-02-14T06:50:00;6.70;99.90
10249;DHT22;5169;50.560;9.714;2024-02-14T06:52:26;6.70;99.90
10249;DHT22;5169;50.560;9.714;2024-02-14T06:54:54;6.60;99.90
10249;DHT22;5169;50.560;9.714;2024-02-14T06:57:19;6.70;99.90
10249;DHT22;5169;50.560;9.714;2024-02-14T06:59:50;6.70;99.90
10249;DHT22;5169;50.560;9.714;2024-02-14T07:02:15;6.70;99.90
10249;DHT22;5169;50.560;9.714;2024-02-14T07:04:42;6.70;99.90
10249;DHT22;5169;50.560;9.714;2024-02-14T07:07:07;6.70;99.90
10249;DHT22;5169;50.560;9.714;2024-02-14T07:09:33;6.70;99.90
10249;DHT22;5169;50.560;9.714;2024-02-14T07:12:03;6.70;99.90
10249;DHT22;5169;50.560;9.714;2024-02-14T07:14:29;6.80;99.90
10249;DHT22;5169;50.560;9.714;2024-02-14T07:16:55;6.80;99.90
10249;DHT22;5169;50.560;9.714;2024-02-14T07:19:20;6.80;99.90
10249;DHT22;5169;50.560;9.714;2024-02-14T07:21:46;6.90;99.90
10249;DHT22;5169;50.560;9.714;2024-02-14T07:24:12;6.90;99.90
10249;DHT22;5169;50.560;9.714;2024-02-14T07:26:37;6.80;99.90
10249;DHT22;5169;50.560;9.714;2024-02-14T07:29:05;6.90;99.90
10249;DHT22;5169;50.560;9.714;2024-02-14T07:31:34;6.80;99.90
10249;DHT22;5169;50.560;9.714;2024-02-14T07:34:02;6.90;99.90
10249;DHT22;5169;50.560;9.714;2024-02-14T07:36:34;6.80;99.90
10249;DHT22;5169;50.560;9.714;2024-02-14T07:39:02;6.80;99.90
10249;DHT22;5169;50.560;9.714;2024-02-14T07:41:30;6.90;99.90
10249;DHT22;5169;50.560;9.714;2024-02-14T07:44:01;6.90;99.90
10249;DHT22;5169;50.560;9.714;2024-02-14T07:46:26;6.90;99.90
10249;DHT22;5169;50.560;9.714;2024-02-14T07:48:53;7.00;99.90
10249;DHT22;5169;50.560;9.714;2024-02-14T07:51:19;7.00;99.90
10249;DHT22;5169;50.560;9.714;2024-02-14T07:53:45;7.00;99.90
10249;DHT22;5169;50.560;9.714;2024-02-14T07:56:11;7.00;99.90
10249;DHT22;5169;50.560;9.714;2024-02-14T07:58:39;7.00;99.90
10249;DHT22;5169;50.560;9.714;2024-02-14T08:01:09;7.00;99.90
10249;DHT22;5169;50.560;9.714;2024-02-14T08:03:35;6.90;99.90
10249;DHT22;5169;50.560;9.714;2024-02-14T08:06:00;7.00;99.90
10249;DHT22;5169;50.560;9.714;2024-02-14T08:08:26;7.00;99.90
10249;DHT22;5169;50.560;9.714;2024-02-14T08:10:54;7.10;99.90
10249;DHT22;5169;50.560;9.714;2024-02-14T08:13:22;7.10;99.90
10249;DHT22;5169;50.560;9.714;2024-02-14T08:15:48;7.10;99.90
10249;DHT22;5169;50.560;9.714;2024-02-14T08:18:15;7.00;99.90
10249;DHT22;5169;50.560;9.714;2024-02-14T08:20:40;7.00;99.90
10249;DHT22;5169;50.560;9.714;2024-02-14T08:23:06;7.10;99.90
10249;DHT22;5169;50.560;9.714;2024-02-14T08:25:32;7.10;99.90
10249;DHT22;5169;50.560;9.714;2024-02-14T08:28:00;7.10;99.90
10249;DHT22;5169;50.560;9.714;2024-02-14T08:30:26;7.10;99.90
10249;DHT22;5169;50.560;9.714;2024-02-14T08:32:52;7.10;99.90
10249;DHT22;5169;50.560;9.714;2024-02-14T08:35:18;7.10;99.90
10249;DHT22;5169;50.560;9.714;2024-02-14T08:37:46;7.10;99.90
10249;DHT22;5169;50.560;9.714;2024-02-14T08:40:12;7.10;99.90
10249;DHT22;5169;50.560;9.714;2024-02-14T08:42:37;7.20;99.90
10249;DHT22;5169;50.560;9.714;2024-02-14T08:45:04;7.20;99.90
10249;DHT22;5169;50.560;9.714;2024-02-14T08:47:30;7.20;99.90
10249;DHT22;5169;50.560;9.714;2024-02-14T08:49:55;7.30;99.90
10249;DHT22;5169;50.560;9.714;2024-02-14T08:52:23;7.30;99.90
10249;DHT22;5169;50.560;9.714;2024-02-14T08:54:49;7.30;99.90
10249;DHT22;5169;50.560;9.714;2024-02-14T08:57:15;7.20;99.90
10249;DHT22;5169;50.560;9.714;2024-02-14T08:59:40;7.20;99.90
10249;DHT22;5169;50.560;9.714;2024-02-14T09:02:08;7.20;99.90
10249;DHT22;5169;50.560;9.714;2024-02-14T09:04:34;7.30;99.90
10249;DHT22;5169;50.560;9.714;2024-02-14T09:07:00;7.30;99.90
10249;DHT22;5169;50.560;9.714;2024-02-14T09:09:29;7.30;99.90
10249;DHT22;5169;50.560;9.714;2024-02-14T09:11:54;7.30;99.90
10249;DHT22;5169;50.560;9.714;2024-02-14T09:14:20;7.30;99.90
10249;DHT22;5169;50.560;9.714;2024-02-14T09:16:46;7.40;99.90
10249;DHT22;5169;50.560;9.714;2024-02-14T09:19:12;7.40;99.90
10249;DHT22;5169;50.560;9.714;2024-02-14T09:21:38;7.40;99.90
10249;DHT22;5169;50.560;9.714;2024-02-14T09:24:04;7.40;99.90
10249;DHT22;5169;50.560;9.714;2024-02-14T09:26:30;7.40;99.90
10249;DHT22;5169;50.560;9.714;2024-02-14T09:28:56;7.50;99.90
10249;DHT22;5169;50.560;9.714;2024-02-14T09:31:22;7.50;99.90
10249;DHT22;5169;50.560;9.714;2024-02-14T09:33:48;7.50;99.90
10249;DHT22;5169;50.560;9.714;2024-02-14T09:36:14;7.50;99.90
10249;DHT22;5169;50.560;9.714;2024-02-14T09:38:41;7.60;99.90
10249;DHT22;5169;50.560;9.714;2024-02-14T09:41:36;7.70;99.90
10249;DHT22;5169;50.560;9.714;2024-02-14T09:44:06;7.70;99.90
10249;DHT22;5169;50.560;9.714;2024-02-14T09:46:36;7.70;99.90
10249;DHT22;5169;50.560;9.714;2024-02-14T09:49:03;7.70;99.90
10249;DHT22;5169;50.560;9.714;2024-02-14T09:51:29;7.60;99.90
10249;DHT22;5169;50.560;9.714;2024-02-14T09:53:56;7.60;99.90
10249;DHT22;5169;50.560;9.714;2024-02-14T09:56:28;7.60;99.90
10249;DHT22;5169;50.560;9.714;2024-02-14T09:58:59;7.60;99.90
10249;DHT22;5169;50.560;9.714;2024-02-14T10:01:26;7.60;99.90
10249;DHT22;5169;50.560;9.714;2024-02-14T10:03:53;7.60;99.90
10249;DHT22;5169;50.560;9.714;2024-02-14T10:06:19;7.70;99.90
10249;DHT22;5169;50.560;9.714;2024-02-14T10:08:49;7.70;99.90
10249;DHT22;5169;50.560;9.714;2024-02-14T10:11:18;7.70;99.90
10249;DHT22;5169;50.560;9.714;2024-02-14T10:13:47;7.70;99.90
10249;DHT22;5169;50.560;9.714;2024-02-14T10:16:17;7.80;99.90
10249;DHT22;5169;50.560;9.714;2024-02-14T10:18:45;7.80;99.90
10249;DHT22;5169;50.560;9.714;2024-02-14T10:21:16;7.90;99.90
10249;DHT22;5169;50.560;9.714;2024-02-14T10:23:45;7.90;99.90
10249;DHT22;5169;50.560;9.714;2024-02-14T10:26:16;7.80;99.90
10249;DHT22;5169;50.560;9.714;2024-02-14T10:28:44;7.90;99.90
10249;DHT22;5169;50.560;9.714;2024-02-14T10:31:14;8.00;99.90
10249;DHT22;5169;50.560;9.714;2024-02-14T10:33:41;8.00;99.90
10249;DHT22;5169;50.560;9.714;2024-02-14T10:36:12;8.10;99.90
10249;DHT22;5169;50.560;9.714;2024-02-14T10:38:39;8.00;99.90
10249;DHT22;5169;50.560;9.714;2024-02-14T10:41:10;8.10;99.90
10249;DHT22;5169;50.560;9.714;2024-02-14T10:43:40;8.10;99.90
10249;DHT22;5169;50.560;9.714;2024-02-14T10:46:10;8.10;99.90
10249;DHT22;5169;50.560;9.714;2024-02-14T10:48:38;8.10;99.90
10249;DHT22;5169;50.560;9.714;2024-02-14T10:51:08;8.10;99.90
10249;DHT22;5169;50.560;9.714;2024-02-14T10:53:39;8.10;99.90
10249;DHT22;5169;50.560;9.714;2024-02-14T10:56:12;8.10;99.90
10249;DHT22;5169;50.560;9.714;2024-02-14T10:58:44;8.10;99.90
10249;DHT22;5169;50.560;9.714;2024-02-14T11:01:11;8.00;99.90
10249;DHT22;5169;50.560;9.714;2024-02-14T11:03:38;8.00;99.90
10249;DHT22;5169;50.560;9.714;2024-02-14T11:06:06;8.10;99.90
10249;DHT22;5169;50.560;9.714;2024-02-14T11:08:32;8.10;99.90
10249;DHT22;5169;50.560;9.714;2024-02-14T11:11:00;8.10;99.90
10249;DHT22;5169;50.560;9.714;2024-02-14T11:13:29;8.10;99.90
10249;DHT22;5169;50.560;9.714;2024-02-14T11:16:00;8.10;99.90
10249;DHT22;5169;50.560;9.714;2024-02-14T11:18:30;8.20;99.90
10249;DHT22;5169;50.560;9.714;2024-02-14T11:20:58;8.30;99.90
10249;DHT22;5169;50.560;9.714;2024-02-14T11:23:24;8.30;99.90
10249;DHT22;5169;50.560;9.714;2024-02-14T11:26:14;8.40;99.90
10249;DHT22;5169;50.560;9.714;2024-02-14T11:28:40;8.30;99.90
10249;DHT22;5169;50.560;9.714;2024-02-14T11:31:11;8.30;99.90
10249;DHT22;5169;50.560;9.714;2024-02-14T11:33:37;8.40;99.90
10249;DHT22;5169;50.560;9.714;2024-02-14T11:36:09;8.40;99.90
10249;DHT22;5169;50.560;9.714;2024-02-14T11:38:35;8.50;99.90
10249;DHT22;5169;50.560;9.714;2024-02-14T11:41:06;8.50;99.90
10249;DHT22;5169;50.560;9.714;2024-02-14T11:43:32;8.60;99.90
10249;DHT22;5169;50.560;9.714;2024-02-14T11:45:58;8.70;99.90
10249;DHT22;5169;50.560;9.714;2024-02-14T11:48:24;8.70;99.90
10249;DHT22;5169;50.560;9.714;2024-02-14T11:50:52;8.70;99.90
10249;DHT22;5169;50.560;9.714;2024-02-14T11:53:21;8.70;99.90
10249;DHT22;5169;50.560;9.714;2024-02-14T11:55:49;8.80;99.90
10249;DHT22;5169;50.560;9.714;2024-02-14T11:58:18;8.80;99.90
10249;DHT22;5169;50.560;9.714;2024-02-14T12:00:45;8.80;99.90
10249;DHT22;5169;50.560;9.714;2024-02-14T12:03:21;8.80;99.90
10249;DHT22;5169;50.560;9.714;2024-02-14T12:05:49;8.80;99.90
10249;DHT22;5169;50.560;9.714;2024-02-14T12:08:16;8.80;99.90
10249;DHT22;5169;50.560;9.714;2024-02-14T12:10:44;8.90;99.90
10249;DHT22;5169;50.560;9.714;2024-02-14T12:13:16;8.90;99.90
10249;DHT22;5169;50.560;9.714;2024-02-14T12:15:45;9.00;99.90
10249;DHT22;5169;50.560;9.714;2024-02-14T12:18:11;9.00;99.90
10249;DHT22;5169;50.560;9.714;2024-02-14T12:20:43;9.00;99.90
10249;DHT22;5169;50.560;9.714;2024-02-14T12:23:17;9.10;99.90
10249;DHT22;5169;50.560;9.714;2024-02-14T12:25:43;9.20;99.90
10249;DHT22;5169;50.560;9.714;2024-02-14T12:28:19;9.30;99.90
10249;DHT22;5169;50.560;9.714;2024-02-14T12:33:15;9.20;99.90
10249;DHT22;5169;50.560;9.714;2024-02-14T12:35:45;9.20;99.90
10249;DHT22;5169;50.560;9.714;2024-02-14T12:38:12;9.20;99.90
10249;DHT22;5169;50.560;9.714;2024-02-14T12:40:39;9.20;99.90
10249;DHT22;5169;50.560;9.714;2024-02-14T12:43:07;9.30;99.90
10249;DHT22;5169;50.560;9.714;2024-02-14T12:45:33;9.50;99.90
10249;DHT22;5169;50.560;9.714;2024-02-14T12:47:59;9.70;99.90
10249;DHT22;5169;50.560;9.714;2024-02-14T12:50:25;10.00;99.90
10249;DHT22;5169;50.560;9.714;2024-02-14T12:52:51;10.10;99.90
10249;DHT22;5169;50.560;9.714;2024-02-14T12:55:17;10.10;99.90
10249;DHT22;5169;50.560;9.714;2024-02-14T12:57:47;10.00;99.90
10249;DHT22;5169;50.560;9.714;2024-02-14T13:00:13;9.90;99.90
10249;DHT22;5169;50.560;9.714;2024-02-14T13:02:41;10.00;99.90
10249;DHT22;5169;50.560;9.714;2024-02-14T13:05:08;10.10;99.90
10249;DHT22;5169;50.560;9.714;2024-02-14T13:07:37;10.10;99.90
10249;DHT22;5169;50.560;9.714;2024-02-14T13:10:04;10.30;99.90
10249;DHT22;5169;50.560;9.714;2024-02-14T13:12:29;10.40;99.90
10249;DHT22;5169;50.560;9.714;2024-02-14T13:14:57;10.30;99.90
10249;DHT22;5169;50.560;9.714;2024-02-14T13:17:23;10.20;99.90
10249;DHT22;5169;50.560;9.714;2024-02-14T13:19:53;10.10;99.90
10249;DHT22;5169;50.560;9.714;2024-02-14T13:22:19;10.20;99.90
10249;DHT22;5169;50.560;9.714;2024-02-14T13:24:45;10.30;99.90
10249;DHT22;5169;50.560;9.714;2024-02-14T13:27:10;10.50;99.90
10249;DHT22;5169;50.560;9.714;2024-02-14T13:29:42;10.50;99.90
10249;DHT22;5169;50.560;9.714;2024-02-14T13:32:10;10.40;99.90
10249;DHT22;5169;50.560;9.714;2024-02-14T13:34:36;10.30;99.90
10249;DHT22;5169;50.560;9.714;2024-02-14T13:37:04;10.10;99.90
10249;DHT22;5169;50.560;9.714;2024-02-14T13:39:31;10.00;99.90
10249;DHT22;5169;50.560;9.714;2024-02-14T13:41:56;9.90;99.90
10249;DHT22;5169;50.560;9.714;2024-02-14T13:44:25;9.90;99.90
10249;DHT22;5169;50.560;9.714;2024-02-14T13:46:51;9.80;99.90
10249;DHT22;5169;50.560;9.714;2024-02-14T13:49:18;9.80;99.90
10249;DHT22;5169;50.560;9.714;2024-02-14T13:51:50;9.70;99.90
10249;DHT22;5169;50.560;9.714;2024-02-14T13:54:22;9.70;99.90
10249;DHT22;5169;50.560;9.714;2024-02-14T13:56:50;9.80;99.90
10249;DHT22;5169;50.560;9.714;2024-02-14T13:59:16;9.80;99.90
10249;DHT22;5169;50.560;9.714;2024-02-14T14:01:42;9.80;99.90
10249;DHT22;5169;50.560;9.714;2024-02-14T14:04:08;9.80;99.90
10249;DHT22;5169;50.560;9.714;2024-02-14T14:06:36;9.90;99.90
10249;DHT22;5169;50.560;9.714;2024-02-14T14:09:07;9.90;99.90
10249;DHT22;5169;50.560;9.714;2024-02-14T14:11:36;9.80;99.90
10249;DHT22;5169;50.560;9.714;2024-02-14T14:14:03;9.80;99.90
10249;DHT22;5169;50.560;9.714;2024-02-14T14:16:28;9.80;99.90
10249;DHT22;5169;50.560;9.714;2024-02-14T14:18:54;9.70;99.90
10249;DHT22;5169;50.560;9.714;2024-02-14T14:21:20;9.80;99.90
10249;DHT22;5169;50.560;9.714;2024-02-14T14:23:46;9.80;99.90
10249;DHT22;5169;50.560;9.714;2024-02-14T14:26:12;9.90;99.90
10249;DHT22;5169;50.560;9.714;2024-02-14T14:28:39;9.80;99.90
10249;DHT22;5169;50.560;9.714;2024-02-14T14:31:04;9.90;99.90
10249;DHT22;5169;50.560;9.714;2024-02-14T14:33:30;9.80;99.90
10249;DHT22;5169;50.560;9.714;2024-02-14T14:35:58;9.90;99.90
10249;DHT22;5169;50.560;9.714;2024-02-14T14:38:24;9.90;99.90
10249;DHT22;5169;50.560;9.714;2024-02-14T14:40:54;9.90;99.90
10249;DHT22;5169;50.560;9.714;2024-02-14T14:43:23;9.90;99.90
10249;DHT22;5169;50.560;9.714;2024-02-14T14:45:49;9.90;99.90
10249;DHT22;5169;50.560;9.714;2024-02-14T14:48:17;9.80;99.90
10249;DHT22;5169;50.560;9.714;2024-02-14T14:50:43;9.90;99.90
10249;DHT22;5169;50.560;9.714;2024-02-14T14:53:09;9.90;99.90
10249;DHT22;5169;50.560;9.714;2024-02-14T14:55:54;9.90;99.90
10249;DHT22;5169;50.560;9.714;2024-02-14T14:58:27;9.90;99.90
10249;DHT22;5169;50.560;9.714;2024-02-14T15:00:56;9.90;99.90
10249;DHT22;5169;50.560;9.714;2024-02-14T15:03:25;9.80;99.90
10249;DHT22;5169;50.560;9.714;2024-02-14T15:05:53;9.80;99.90
10249;DHT22;5169;50.560;9.714;2024-02-14T15:08:21;9.80;99.90
10249;DHT22;5169;50.560;9.714;2024-02-14T15:10:51;9.80;99.90
10249;DHT22;5169;50.560;9.714;2024-02-14T15:13:21;9.80;99.90
10249;DHT22;5169;50.560;9.714;2024-02-14T15:15:47;9.80;99.90
10249;DHT22;5169;50.560;9.714;2024-02-14T15:18:13;9.80;99.90
10249;DHT22;5169;50.560;9.714;2024-02-14T15:20:39;9.80;99.90
10249;DHT22;5169;50.560;9.714;2024-02-14T15:23:08;9.70;99.90
10249;DHT22;5169;50.560;9.714;2024-02-14T15:25:34;9.60;99.90
10249;DHT22;5169;50.560;9.714;2024-02-14T15:28:07;9.60;99.90
10249;DHT22;5169;50.560;9.714;2024-02-14T15:30:37;9.60;99.90
10249;DHT22;5169;50.560;9.714;2024-02-14T15:33:22;9.60;99.90
10249;DHT22;5169;50.560;9.714;2024-02-14T15:35:57;9.50;99.90
10249;DHT22;5169;50.560;9.714;2024-02-14T15:38:26;9.40;99.90
10249;DHT22;5169;50.560;9.714;2024-02-14T15:40:54;9.40;99.90
10249;DHT22;5169;50.560;9.714;2024-02-14T15:43:23;9.40;99.90
10249;DHT22;5169;50.560;9.714;2024-02-14T15:45:52;9.40;99.90
10249;DHT22;5169;50.560;9.714;2024-02-14T15:48:17;9.40;99.90
10249;DHT22;5169;50.560;9.714;2024-02-14T15:50:45;9.40;99.90
10249;DHT22;5169;50.560;9.714;2024-02-14T15:53:11;9.40;99.90
10249;DHT22;5169;50.560;9.714;2024-02-14T15:55:40;9.30;99.90
10249;DHT22;5169;50.560;9.714;2024-02-14T15:58:06;9.30;99.90
10249;DHT22;5169;50.560;9.714;2024-02-14T16:00:34;9.30;99.90
10249;DHT22;5169;50.560;9.714;2024-02-14T16:03:00;9.30;99.90